createdAt,value
2019-04-28T00:00:41.269Z,0.00
2019-04-28T00:01:41.317Z,0.00
2019-04-28T00:02:41.277Z,0.00
2019-04-28T00:03:41.976Z,0.00
2019-04-28T00:04:41.616Z,0.00
2019-04-28T00:05:41.625Z,0.00
2019-04-28T00:06:41.746Z,0.00
2019-04-28T00:07:41.212Z,0.00
2019-04-28T00:08:42.812Z,0.00
2019-04-28T00:09:41.554Z,0.00
2019-04-28T00:10:41.852Z,0.00
2019-04-28T00:11:41.728Z,0.00
2019-04-28T00:12:41.305Z,0.00
2019-04-28T00:13:41.810Z,0.00
2019-04-28T00:14:41.809Z,0.00
2019-04-28T00:15:41.655Z,0.00
2019-04-28T00:16:41.335Z,0.00
2019-04-28T00:17:41.993Z,0.00
2019-04-28T00:18:41.653Z,0.00
2019-04-28T00:19:41.085Z,0.00
2019-04-28T00:20:41.035Z,0.00
2019-04-28T00:21:41.479Z,0.00
2019-04-28T00:22:41.903Z,0.00
2019-04-28T00:23:42.263Z,0.00
2019-04-28T00:24:41.624Z,0.00
2019-04-28T00:25:41.107Z,0.00
2019-04-28T00:26:41.146Z,0.00
2019-04-28T00:27:41.521Z,0.00
2019-04-28T00:28:41.616Z,0.00
2019-04-28T00:29:45.611Z,0.00
2019-04-28T00:30:41.943Z,0.00
2019-04-28T00:31:41.447Z,0.00
2019-04-28T00:32:41.761Z,0.00
2019-04-28T00:33:41.062Z,0.00
2019-04-28T00:34:41.375Z,0.00
2019-04-28T00:35:41.824Z,0.00
2019-04-28T00:36:42.801Z,0.00
2019-04-28T00:37:41.808Z,0.00
2019-04-28T00:38:41.516Z,0.00
2019-04-28T00:39:41.081Z,0.00
2019-04-28T00:40:41.389Z,0.00
2019-04-28T00:41:42.050Z,0.00
2019-04-28T00:42:41.419Z,0.00
2019-04-28T00:43:41.785Z,0.00
2019-04-28T00:44:41.600Z,0.00
2019-04-28T00:45:41.323Z,0.00
2019-04-28T00:46:41.117Z,0.00
2019-04-28T00:47:42.836Z,0.00
2019-04-28T00:48:41.538Z,0.00
2019-04-28T00:49:42.013Z,0.00
2019-04-28T00:50:41.371Z,0.00
2019-04-28T00:51:41.488Z,0.00
2019-04-28T00:52:41.849Z,0.00
2019-04-28T00:53:40.950Z,0.00
2019-04-28T00:54:42.047Z,0.00
2019-04-28T00:55:41.644Z,0.00
2019-04-28T00:56:41.823Z,0.00
2019-04-28T00:57:41.029Z,0.00
2019-04-28T00:58:41.731Z,0.00
2019-04-28T00:59:52.192Z,0.00
2019-04-28T01:00:41.618Z,0.00
2019-04-28T01:01:40.740Z,0.00
2019-04-28T01:02:41.307Z,0.00
2019-04-28T01:03:42.087Z,0.00
2019-04-28T01:04:41.343Z,0.00
2019-04-28T01:05:41.147Z,0.00
2019-04-28T01:06:40.599Z,0.00
2019-04-28T01:07:41.472Z,0.00
2019-04-28T01:08:41.943Z,0.00
2019-04-28T01:09:41.585Z,0.00
2019-04-28T01:10:40.980Z,0.00
2019-04-28T01:11:41.455Z,0.00
2019-04-28T01:12:41.121Z,0.00
2019-04-28T01:13:41.937Z,0.00
2019-04-28T01:14:40.944Z,0.00
2019-04-28T01:15:40.430Z,0.00
2019-04-28T01:16:40.440Z,0.00
2019-04-28T01:17:40.401Z,0.00
2019-04-28T01:18:40.572Z,0.00
2019-04-28T01:19:40.383Z,0.00
2019-04-28T01:20:40.409Z,0.00
2019-04-28T01:21:41.600Z,0.00
2019-04-28T01:22:40.367Z,0.00
2019-04-28T01:23:40.375Z,0.00
2019-04-28T01:24:40.340Z,0.00
2019-04-28T01:25:40.882Z,0.00
2019-04-28T01:26:41.650Z,0.00
2019-04-28T01:27:40.376Z,0.00
2019-04-28T01:28:40.311Z,0.00
2019-04-28T01:29:40.420Z,0.00
2019-04-28T01:30:40.339Z,0.00
2019-04-28T01:31:40.332Z,0.00
2019-04-28T01:32:40.309Z,0.00
2019-04-28T01:33:40.717Z,0.00
2019-04-28T01:34:40.270Z,0.00
2019-04-28T01:35:40.282Z,0.00
2019-04-28T01:36:40.259Z,0.00
2019-04-28T01:37:40.708Z,0.00
2019-04-28T01:38:40.320Z,0.00
2019-04-28T01:39:41.254Z,0.00
2019-04-28T01:40:41.380Z,0.00
2019-04-28T01:41:40.178Z,0.00
2019-04-28T01:42:41.226Z,0.00
2019-04-28T01:43:41.736Z,0.00
2019-04-28T01:44:40.116Z,0.00
2019-04-28T01:45:41.592Z,0.00
2019-04-28T01:46:40.126Z,0.00
2019-04-28T01:47:40.614Z,0.00
2019-04-28T01:48:40.098Z,0.00
2019-04-28T01:49:40.583Z,0.00
2019-04-28T01:50:40.126Z,0.00
2019-04-28T01:51:41.615Z,0.00
2019-04-28T01:52:40.166Z,0.00
2019-04-28T01:53:40.011Z,0.00
2019-04-28T01:54:40.405Z,0.00
2019-04-28T01:55:41.132Z,0.00
2019-04-28T01:56:40.410Z,0.00
2019-04-28T01:57:40.217Z,0.00
2019-04-28T01:58:40.436Z,0.00
2019-04-28T01:59:40.453Z,0.00
2019-04-28T02:00:40.538Z,0.00
2019-04-28T02:01:40.094Z,0.00
2019-04-28T02:02:40.721Z,0.00
2019-04-28T02:03:40.481Z,0.00
2019-04-28T02:04:40.378Z,0.00
2019-04-28T02:05:40.558Z,0.00
2019-04-28T02:06:40.005Z,0.00
2019-04-28T02:07:40.704Z,0.00
2019-04-28T02:08:40.024Z,0.00
2019-04-28T02:09:39.848Z,0.00
2019-04-28T02:10:40.239Z,0.00
2019-04-28T02:11:41.210Z,0.00
2019-04-28T02:12:40.293Z,0.00
2019-04-28T02:13:39.971Z,0.00
2019-04-28T02:14:40.396Z,0.00
2019-04-28T02:15:40.105Z,0.00
2019-04-28T02:16:40.509Z,0.00
2019-04-28T02:17:40.252Z,0.00
2019-04-28T02:18:39.990Z,0.00
2019-04-28T02:19:40.965Z,0.00
2019-04-28T02:20:39.824Z,0.00
2019-04-28T02:21:39.743Z,0.00
2019-04-28T02:22:40.169Z,0.00
2019-04-28T02:23:39.789Z,0.00
2019-04-28T02:24:40.492Z,0.00
2019-04-28T02:25:39.924Z,0.00
2019-04-28T02:26:40.280Z,0.00
2019-04-28T02:27:40.149Z,0.00
2019-04-28T02:28:40.740Z,0.00
2019-04-28T02:29:41.395Z,0.00
2019-04-28T02:30:45.377Z,0.00
2019-04-28T02:31:41.950Z,0.00
2019-04-28T02:32:40.740Z,0.00
2019-04-28T02:33:40.827Z,0.00
2019-04-28T02:34:41.110Z,0.00
2019-04-28T02:35:41.830Z,0.00
2019-04-28T02:36:40.767Z,0.00
2019-04-28T02:37:40.587Z,0.00
2019-04-28T02:38:41.460Z,0.00
2019-04-28T02:39:40.957Z,0.00
2019-04-28T02:40:40.640Z,0.00
2019-04-28T02:41:41.119Z,0.00
2019-04-28T02:42:40.951Z,0.00
2019-04-28T02:43:40.966Z,0.00
2019-04-28T02:44:40.468Z,0.00
2019-04-28T02:45:41.199Z,0.00
2019-04-28T02:46:40.791Z,0.00
2019-04-28T02:47:42.013Z,0.00
2019-04-28T02:48:40.424Z,0.00
2019-04-28T02:49:40.574Z,0.00
2019-04-28T02:50:41.086Z,0.00
2019-04-28T02:51:40.772Z,0.00
2019-04-28T02:52:41.444Z,0.00
2019-04-28T02:53:40.896Z,0.00
2019-04-28T02:54:40.397Z,0.00
2019-04-28T02:55:41.280Z,0.00
2019-04-28T02:56:43.418Z,0.00
2019-04-28T02:57:40.658Z,0.00
2019-04-28T02:58:41.551Z,0.00
2019-04-28T02:59:40.986Z,0.00
2019-04-28T03:00:41.149Z,0.00
2019-04-28T03:01:40.968Z,0.00
2019-04-28T03:02:41.409Z,0.00
2019-04-28T03:03:40.863Z,0.00
2019-04-28T03:04:40.834Z,0.00
2019-04-28T03:05:41.278Z,0.00
2019-04-28T03:06:40.729Z,0.00
2019-04-28T03:07:40.946Z,0.00
2019-04-28T03:08:40.545Z,0.00
2019-04-28T03:09:40.395Z,0.00
2019-04-28T03:10:40.968Z,0.00
2019-04-28T03:11:42.775Z,0.00
2019-04-28T03:12:41.450Z,0.00
2019-04-28T03:13:41.099Z,0.00
2019-04-28T03:14:43.287Z,0.00
2019-04-28T03:15:41.437Z,0.00
2019-04-28T03:16:41.070Z,0.00
2019-04-28T03:17:40.681Z,0.00
2019-04-28T03:18:41.194Z,0.00
2019-04-28T03:19:41.482Z,0.00
2019-04-28T03:20:41.537Z,0.00
2019-04-28T03:21:41.664Z,0.00
2019-04-28T03:22:40.820Z,0.00
2019-04-28T03:23:40.512Z,0.00
2019-04-28T03:24:41.310Z,0.00
2019-04-28T03:25:40.777Z,0.00
2019-04-28T03:26:41.328Z,0.00
2019-04-28T03:27:40.493Z,0.00
2019-04-28T03:28:41.356Z,0.00
2019-04-28T03:29:40.392Z,0.00
2019-04-28T03:30:43.523Z,0.00
2019-04-28T03:32:03.737Z,0.00
2019-04-28T03:32:52.060Z,0.00
2019-04-28T03:33:47.222Z,0.00
2019-04-28T03:34:43.529Z,0.00
2019-04-28T03:35:43.483Z,0.00
2019-04-28T03:36:40.881Z,0.00
2019-04-28T03:37:41.188Z,0.00
2019-04-28T03:38:40.655Z,0.00
2019-04-28T03:39:40.524Z,0.00
2019-04-28T03:40:41.343Z,0.00
2019-04-28T03:41:40.566Z,0.00
2019-04-28T03:42:40.973Z,0.00
2019-04-28T03:43:40.595Z,0.00
2019-04-28T03:44:41.481Z,0.00
2019-04-28T03:45:41.015Z,0.00
2019-04-28T03:46:41.205Z,0.00
2019-04-28T03:47:40.696Z,0.00
2019-04-28T03:48:40.987Z,0.00
2019-04-28T03:49:40.621Z,0.00
2019-04-28T03:50:41.211Z,0.00
2019-04-28T03:51:40.785Z,0.00
2019-04-28T03:52:41.247Z,0.00
2019-04-28T03:53:40.940Z,0.00
2019-04-28T03:54:40.999Z,0.00
2019-04-28T03:55:41.420Z,0.00
2019-04-28T03:56:41.139Z,0.00
2019-04-28T03:57:41.031Z,0.00
2019-04-28T03:58:40.570Z,0.00
2019-04-28T03:59:43.066Z,0.00
2019-04-28T04:00:40.864Z,0.00
2019-04-28T04:01:53.024Z,0.00
2019-04-28T04:02:41.148Z,0.00
2019-04-28T04:03:38.600Z,0.00
2019-04-28T04:04:41.097Z,0.00
2019-04-28T04:05:40.605Z,0.00
2019-04-28T04:06:40.782Z,0.00
2019-04-28T04:07:42.751Z,0.00
2019-04-28T04:08:40.798Z,0.00
2019-04-28T04:09:41.226Z,0.00
2019-04-28T04:10:40.362Z,5.62
2019-04-28T04:11:40.888Z,5.62
2019-04-28T04:12:40.969Z,5.62
2019-04-28T04:13:41.223Z,5.62
2019-04-28T04:14:41.029Z,5.62
2019-04-28T04:15:41.089Z,5.62
2019-04-28T04:16:40.576Z,5.62
2019-04-28T04:17:41.103Z,5.62
2019-04-28T04:18:40.711Z,5.62
2019-04-28T04:19:40.766Z,5.62
2019-04-28T04:20:40.346Z,5.62
2019-04-28T04:21:40.704Z,5.62
2019-04-28T04:22:41.054Z,5.62
2019-04-28T04:23:40.907Z,5.62
2019-04-28T04:24:40.267Z,5.62
2019-04-28T04:25:41.191Z,5.62
2019-04-28T04:26:40.735Z,5.62
2019-04-28T04:27:40.631Z,5.62
2019-04-28T04:28:38.360Z,5.62
2019-04-28T04:29:41.161Z,11.25
2019-04-28T04:30:40.862Z,11.25
2019-04-28T04:31:38.347Z,11.25
2019-04-28T04:32:40.907Z,16.88
2019-04-28T04:33:40.754Z,16.88
2019-04-28T04:34:40.614Z,16.88
2019-04-28T04:35:43.144Z,16.88
2019-04-28T04:36:41.811Z,16.88
2019-04-28T04:37:40.383Z,22.50
2019-04-28T04:38:42.974Z,22.50
2019-04-28T04:39:40.710Z,22.50
2019-04-28T04:40:40.994Z,22.50
2019-04-28T04:41:40.854Z,22.50
2019-04-28T04:42:40.296Z,28.12
2019-04-28T04:43:41.177Z,28.12
2019-04-28T04:44:41.352Z,28.12
2019-04-28T04:45:40.497Z,28.12
2019-04-28T04:46:41.230Z,28.12
2019-04-28T04:47:40.470Z,33.75
2019-04-28T04:48:40.657Z,33.75
2019-04-28T04:49:40.323Z,39.38
2019-04-28T04:50:40.909Z,39.38
2019-04-28T04:51:40.768Z,45.00
2019-04-28T04:52:40.269Z,45.00
2019-04-28T04:53:40.611Z,45.00
2019-04-28T04:54:39.993Z,50.62
2019-04-28T04:55:40.573Z,50.62
2019-04-28T04:56:39.992Z,50.62
2019-04-28T04:57:38.034Z,50.62
2019-04-28T04:58:40.445Z,50.62
2019-04-28T04:59:39.986Z,56.25
2019-04-28T05:00:38.009Z,56.25
2019-04-28T05:01:40.430Z,56.25
2019-04-28T05:02:39.997Z,61.88
2019-04-28T05:03:39.399Z,61.88
2019-04-28T05:04:39.582Z,67.50
2019-04-28T05:05:37.935Z,73.12
2019-04-28T05:06:39.949Z,78.75
2019-04-28T05:07:39.595Z,84.38
2019-04-28T05:08:37.897Z,95.62
2019-04-28T05:09:39.493Z,101.25
2019-04-28T05:10:37.875Z,112.50
2019-04-28T05:11:39.815Z,123.75
2019-04-28T05:12:37.855Z,118.12
2019-04-28T05:13:37.874Z,123.75
2019-04-28T05:14:39.474Z,123.75
2019-04-28T05:15:37.813Z,123.75
2019-04-28T05:16:39.626Z,123.75
2019-04-28T05:17:37.853Z,118.12
2019-04-28T05:18:39.363Z,118.12
2019-04-28T05:19:37.811Z,129.38
2019-04-28T05:20:37.763Z,140.62
2019-04-28T05:21:39.859Z,146.25
2019-04-28T05:22:37.781Z,151.88
2019-04-28T05:23:37.789Z,151.88
2019-04-28T05:24:37.731Z,146.25
2019-04-28T05:25:39.474Z,140.62
2019-04-28T05:26:42.493Z,140.62
2019-04-28T05:27:39.906Z,129.38
2019-04-28T05:28:43.980Z,123.75
2019-04-28T05:29:39.799Z,112.50
2019-04-28T05:30:39.771Z,106.88
2019-04-28T05:31:40.088Z,106.88
2019-04-28T05:32:43.121Z,118.12
2019-04-28T05:33:39.563Z,129.38
2019-04-28T05:34:41.506Z,123.75
2019-04-28T05:35:39.721Z,118.12
2019-04-28T05:36:42.519Z,118.12
2019-04-28T05:37:40.335Z,123.75
2019-04-28T05:38:37.571Z,106.88
2019-04-28T05:39:38.628Z,101.25
2019-04-28T05:40:37.562Z,101.25
2019-04-28T05:41:37.528Z,95.62
2019-04-28T05:42:39.400Z,101.25
2019-04-28T05:43:37.519Z,106.88
2019-04-28T05:44:37.835Z,112.50
2019-04-28T05:45:37.481Z,112.50
2019-04-28T05:46:37.472Z,112.50
2019-04-28T05:47:37.462Z,123.75
2019-04-28T05:48:37.451Z,123.75
2019-04-28T05:49:37.480Z,157.50
2019-04-28T05:50:37.430Z,168.75
2019-04-28T05:51:37.433Z,191.25
2019-04-28T05:52:37.411Z,213.75
2019-04-28T05:53:37.400Z,219.38
2019-04-28T05:54:37.421Z,202.50
2019-04-28T05:55:37.381Z,213.75
2019-04-28T05:56:37.361Z,275.62
2019-04-28T05:57:37.358Z,264.38
2019-04-28T05:58:37.383Z,281.25
2019-04-28T05:59:37.346Z,309.38
2019-04-28T06:00:37.352Z,320.62
2019-04-28T06:01:37.309Z,326.25
2019-04-28T06:02:37.299Z,326.25
2019-04-28T06:03:37.291Z,315.00
2019-04-28T06:04:37.279Z,309.38
2019-04-28T06:05:37.310Z,303.75
2019-04-28T06:06:37.250Z,292.50
2019-04-28T06:07:37.268Z,292.50
2019-04-28T06:08:37.240Z,286.88
2019-04-28T06:09:37.228Z,292.50
2019-04-28T06:10:37.279Z,292.50
2019-04-28T06:11:37.203Z,298.12
2019-04-28T06:12:37.189Z,298.12
2019-04-28T06:13:37.181Z,303.75
2019-04-28T06:14:37.297Z,309.38
2019-04-28T06:15:37.151Z,315.00
2019-04-28T06:16:37.164Z,320.62
2019-04-28T06:17:37.132Z,320.62
2019-04-28T06:18:37.121Z,326.25
2019-04-28T06:19:37.149Z,326.25
2019-04-28T06:20:37.101Z,331.88
2019-04-28T06:21:37.130Z,337.50
2019-04-28T06:22:37.091Z,348.75
2019-04-28T06:23:37.081Z,337.50
2019-04-28T06:24:37.060Z,360.00
2019-04-28T06:25:37.101Z,388.12
2019-04-28T06:26:37.040Z,275.62
2019-04-28T06:27:37.069Z,326.25
2019-04-28T06:28:37.020Z,382.50
2019-04-28T06:29:37.019Z,365.62
2019-04-28T06:30:37.025Z,421.88
2019-04-28T06:31:36.991Z,410.62
2019-04-28T06:32:37.027Z,365.62
2019-04-28T06:33:36.968Z,348.75
2019-04-28T06:34:36.949Z,331.88
2019-04-28T06:35:36.946Z,320.62
2019-04-28T06:36:36.961Z,517.50
2019-04-28T06:37:36.930Z,1237.50
2019-04-28T06:38:36.908Z,2148.75
2019-04-28T06:39:36.911Z,2514.38
2019-04-28T06:40:36.885Z,1333.12
2019-04-28T06:41:36.911Z,748.12
2019-04-28T06:42:36.859Z,511.88
2019-04-28T06:43:36.851Z,354.38
2019-04-28T06:44:36.859Z,489.38
2019-04-28T06:45:36.873Z,500.62
2019-04-28T06:46:36.849Z,517.50
2019-04-28T06:47:36.861Z,506.25
2019-04-28T06:48:36.892Z,444.38
2019-04-28T06:49:36.910Z,466.88
2019-04-28T06:50:36.770Z,731.25
2019-04-28T06:51:36.787Z,1203.75
2019-04-28T06:52:36.776Z,1001.25
2019-04-28T06:53:36.750Z,1513.12
2019-04-28T06:54:36.763Z,2092.50
2019-04-28T06:55:36.729Z,1749.38
2019-04-28T06:56:36.717Z,1068.75
2019-04-28T06:57:36.729Z,388.12
2019-04-28T06:58:36.733Z,376.88
2019-04-28T06:59:36.681Z,264.38
2019-04-28T07:00:36.673Z,247.50
2019-04-28T07:01:36.650Z,382.50
2019-04-28T07:02:36.664Z,337.50
2019-04-28T07:03:36.681Z,455.62
2019-04-28T07:04:36.650Z,641.25
2019-04-28T07:05:36.665Z,995.62
2019-04-28T07:06:36.611Z,573.75
2019-04-28T07:07:36.611Z,2986.88
2019-04-28T07:08:36.613Z,3285.00
2019-04-28T07:09:36.593Z,3189.38
2019-04-28T07:10:36.615Z,2885.62
2019-04-28T07:11:36.551Z,2840.62
2019-04-28T07:12:36.611Z,2930.62
2019-04-28T07:13:36.521Z,2008.12
2019-04-28T07:14:36.539Z,343.12
2019-04-28T07:15:36.512Z,1029.38
2019-04-28T07:16:36.512Z,303.75
2019-04-28T07:17:36.512Z,360.00
2019-04-28T07:18:36.481Z,360.00
2019-04-28T07:19:36.481Z,337.50
2019-04-28T07:20:36.465Z,337.50
2019-04-28T07:21:36.489Z,376.88
2019-04-28T07:22:36.434Z,376.88
2019-04-28T07:23:37.129Z,247.50
2019-04-28T07:24:36.441Z,241.88
2019-04-28T07:25:36.421Z,315.00
2019-04-28T07:26:36.445Z,315.00
2019-04-28T07:27:36.390Z,253.12
2019-04-28T07:28:36.381Z,270.00
2019-04-28T07:29:36.373Z,343.12
2019-04-28T07:30:36.334Z,596.25
2019-04-28T07:31:36.386Z,2739.38
2019-04-28T07:32:36.341Z,1141.88
2019-04-28T07:33:36.507Z,489.38
2019-04-28T07:34:36.318Z,888.75
2019-04-28T07:35:36.320Z,556.88
2019-04-28T07:36:36.271Z,607.50
2019-04-28T07:37:36.311Z,720.00
2019-04-28T07:38:36.284Z,433.12
2019-04-28T07:39:36.263Z,495.00
2019-04-28T07:40:36.236Z,708.75
2019-04-28T07:41:36.215Z,1001.25
2019-04-28T07:42:36.233Z,748.12
2019-04-28T07:43:36.202Z,1929.38
2019-04-28T07:44:36.182Z,1175.62
2019-04-28T07:45:36.213Z,596.25
2019-04-28T07:46:36.164Z,427.50
2019-04-28T07:47:36.192Z,540.00
2019-04-28T07:48:36.150Z,2266.88
2019-04-28T07:49:36.142Z,3493.12
2019-04-28T07:50:36.137Z,3088.12
2019-04-28T07:51:36.105Z,4291.88
2019-04-28T07:52:36.177Z,4286.25
2019-04-28T07:53:36.093Z,3757.50
2019-04-28T07:54:36.075Z,3223.12
2019-04-28T07:55:36.098Z,2902.50
2019-04-28T07:56:36.097Z,1282.50
2019-04-28T07:57:36.096Z,973.12
2019-04-28T07:58:36.030Z,978.75
2019-04-28T07:59:36.034Z,1051.88
2019-04-28T08:00:36.014Z,911.25
2019-04-28T08:01:36.013Z,961.88
2019-04-28T08:02:36.036Z,866.25
2019-04-28T08:03:48.536Z,877.50
2019-04-28T08:04:36.988Z,1018.12
2019-04-28T08:05:36.035Z,669.38
2019-04-28T08:06:35.954Z,736.88
2019-04-28T08:07:36.067Z,922.50
2019-04-28T08:08:35.934Z,911.25
2019-04-28T08:09:35.914Z,371.25
2019-04-28T08:10:35.904Z,427.50
2019-04-28T08:11:35.963Z,590.62
2019-04-28T08:12:35.904Z,438.75
2019-04-28T08:13:35.908Z,472.50
2019-04-28T08:14:35.883Z,348.75
2019-04-28T08:15:35.856Z,247.50
2019-04-28T08:16:35.957Z,281.25
2019-04-28T08:17:35.819Z,337.50
2019-04-28T08:18:35.858Z,281.25
2019-04-28T08:19:36.828Z,258.75
2019-04-28T08:20:35.816Z,270.00
2019-04-28T08:21:35.847Z,658.12
2019-04-28T08:22:35.792Z,613.12
2019-04-28T08:23:46.653Z,258.75
2019-04-28T08:24:36.754Z,213.75
2019-04-28T08:25:35.794Z,202.50
2019-04-28T08:26:36.393Z,253.12
2019-04-28T08:27:35.716Z,866.25
2019-04-28T08:28:35.717Z,466.88
2019-04-28T08:29:35.685Z,365.62
2019-04-28T08:30:35.698Z,742.50
2019-04-28T08:31:35.698Z,534.38
2019-04-28T08:32:35.719Z,697.50
2019-04-28T08:33:35.647Z,691.88
2019-04-28T08:34:35.660Z,770.62
2019-04-28T08:35:35.648Z,770.62
2019-04-28T08:36:36.262Z,759.38
2019-04-28T08:37:35.631Z,770.62
2019-04-28T08:38:35.640Z,810.00
2019-04-28T08:39:35.584Z,922.50
2019-04-28T08:40:35.571Z,2379.38
2019-04-28T08:41:35.577Z,4494.38
2019-04-28T08:42:35.604Z,4061.25
2019-04-28T08:43:35.537Z,3729.38
2019-04-28T08:44:35.518Z,3166.88
2019-04-28T08:45:35.518Z,354.38
2019-04-28T08:46:35.503Z,601.88
2019-04-28T08:47:35.568Z,410.62
2019-04-28T08:48:35.486Z,393.75
2019-04-28T08:49:35.533Z,3577.50
2019-04-28T08:50:35.472Z,585.00
2019-04-28T08:51:35.448Z,461.25
2019-04-28T08:52:35.448Z,607.50
2019-04-28T08:53:35.429Z,399.38
2019-04-28T08:54:35.480Z,697.50
2019-04-28T08:55:35.399Z,489.38
2019-04-28T08:56:35.418Z,343.12
2019-04-28T08:57:35.397Z,4078.12
2019-04-28T08:58:35.413Z,388.12
2019-04-28T08:59:35.601Z,472.50
2019-04-28T09:00:35.378Z,4449.38
2019-04-28T09:01:35.349Z,4196.25
2019-04-28T09:02:35.330Z,3926.25
2019-04-28T09:03:35.369Z,798.75
2019-04-28T09:04:35.342Z,3723.75
2019-04-28T09:05:35.339Z,725.62
2019-04-28T09:06:35.312Z,776.25
2019-04-28T09:07:35.293Z,646.88
2019-04-28T09:08:35.263Z,416.25
2019-04-28T09:09:35.309Z,1766.25
2019-04-28T09:10:35.240Z,309.38
2019-04-28T09:11:35.260Z,264.38
2019-04-28T09:12:35.241Z,511.88
2019-04-28T09:13:35.244Z,607.50
2019-04-28T09:14:35.249Z,331.88
2019-04-28T09:15:35.185Z,303.75
2019-04-28T09:16:35.180Z,331.88
2019-04-28T09:17:35.182Z,2182.50
2019-04-28T09:18:35.183Z,337.50
2019-04-28T09:19:35.191Z,298.12
2019-04-28T09:20:35.143Z,354.38
2019-04-28T09:21:35.139Z,2120.62
2019-04-28T09:22:35.151Z,1890.00
2019-04-28T09:23:35.102Z,1760.62
2019-04-28T09:24:35.089Z,1805.62
2019-04-28T09:25:35.088Z,1428.75
2019-04-28T09:26:37.023Z,866.25
2019-04-28T09:27:35.099Z,742.50
2019-04-28T09:28:35.045Z,697.50
2019-04-28T09:29:35.073Z,691.88
2019-04-28T09:30:35.021Z,680.62
2019-04-28T09:31:35.045Z,680.62
2019-04-28T09:32:35.062Z,708.75
2019-04-28T09:33:35.025Z,613.12
2019-04-28T09:34:34.980Z,506.25
2019-04-28T09:35:34.973Z,607.50
2019-04-28T09:36:35.053Z,568.12
2019-04-28T09:37:34.943Z,528.75
2019-04-28T09:38:34.933Z,551.25
2019-04-28T09:39:34.938Z,579.38
2019-04-28T09:40:34.918Z,618.75
2019-04-28T09:41:34.947Z,613.12
2019-04-28T09:42:34.885Z,630.00
2019-04-28T09:43:34.875Z,534.38
2019-04-28T09:44:34.863Z,517.50
2019-04-28T09:45:34.859Z,478.12
2019-04-28T09:46:34.874Z,511.88
2019-04-28T09:47:34.840Z,573.75
2019-04-28T09:48:34.824Z,590.62
2019-04-28T09:49:34.851Z,590.62
2019-04-28T09:50:34.799Z,585.00
2019-04-28T09:51:34.794Z,596.25
2019-04-28T09:52:34.776Z,596.25
2019-04-28T09:53:34.867Z,590.62
2019-04-28T09:54:34.795Z,573.75
2019-04-28T09:55:34.744Z,556.88
2019-04-28T09:56:34.747Z,545.62
2019-04-28T09:57:34.743Z,534.38
2019-04-28T09:58:34.712Z,540.00
2019-04-28T09:59:34.752Z,573.75
2019-04-28T10:00:34.687Z,601.88
2019-04-28T10:01:34.732Z,596.25
2019-04-28T10:02:34.675Z,585.00
2019-04-28T10:03:34.675Z,585.00
2019-04-28T10:04:41.357Z,573.75
2019-04-28T10:05:35.667Z,568.12
2019-04-28T10:06:34.696Z,551.25
2019-04-28T10:07:34.618Z,545.62
2019-04-28T10:08:36.630Z,545.62
2019-04-28T10:09:34.596Z,556.88
2019-04-28T10:10:34.590Z,568.12
2019-04-28T10:11:34.622Z,540.00
2019-04-28T10:12:34.582Z,540.00
2019-04-28T10:13:34.543Z,540.00
2019-04-28T10:14:34.566Z,523.12
2019-04-28T10:15:34.577Z,517.50
2019-04-28T10:16:34.517Z,511.88
2019-04-28T10:17:34.527Z,500.62
2019-04-28T10:18:34.493Z,483.75
2019-04-28T10:19:34.491Z,320.62
2019-04-28T10:20:34.497Z,337.50
2019-04-28T10:21:34.457Z,506.25
2019-04-28T10:22:34.465Z,331.88
2019-04-28T10:23:34.445Z,545.62
2019-04-28T10:24:34.455Z,495.00
2019-04-28T10:25:36.567Z,371.25
2019-04-28T10:26:34.440Z,365.62
2019-04-28T10:27:34.393Z,433.12
2019-04-28T10:28:34.386Z,416.25
2019-04-28T10:29:35.656Z,399.38
2019-04-28T10:30:35.804Z,405.00
2019-04-28T10:31:34.379Z,371.25
2019-04-28T10:32:34.340Z,348.75
2019-04-28T10:33:34.338Z,478.12
2019-04-28T10:34:34.318Z,506.25
2019-04-28T10:35:34.308Z,517.50
2019-04-28T10:36:34.330Z,506.25
2019-04-28T10:37:34.279Z,483.75
2019-04-28T10:38:34.288Z,472.50
2019-04-28T10:39:34.262Z,455.62
2019-04-28T10:40:34.259Z,450.00
2019-04-28T10:41:34.277Z,455.62
2019-04-28T10:42:34.264Z,478.12
2019-04-28T10:43:34.222Z,376.88
2019-04-28T10:44:34.221Z,483.75
2019-04-28T10:45:34.207Z,500.62
2019-04-28T10:46:34.227Z,523.12
2019-04-28T10:47:34.175Z,528.75
2019-04-28T10:48:34.170Z,556.88
2019-04-28T10:49:34.179Z,579.38
2019-04-28T10:50:34.190Z,618.75
2019-04-28T10:51:34.199Z,663.75
2019-04-28T10:52:34.160Z,635.62
2019-04-28T10:53:34.151Z,720.00
2019-04-28T10:54:34.114Z,843.75
2019-04-28T10:55:34.118Z,427.50
2019-04-28T10:56:34.111Z,354.38
2019-04-28T10:57:34.098Z,309.38
2019-04-28T10:58:34.082Z,270.00
2019-04-28T10:59:34.172Z,506.25
2019-04-28T11:00:34.032Z,208.12
2019-04-28T11:01:34.051Z,196.88
2019-04-28T11:02:34.012Z,180.00
2019-04-28T11:03:34.004Z,163.12
2019-04-28T11:04:34.002Z,140.62
2019-04-28T11:05:33.985Z,140.62
2019-04-28T11:06:34.012Z,151.88
2019-04-28T11:07:33.959Z,163.12
2019-04-28T11:08:33.963Z,163.12
2019-04-28T11:09:33.932Z,157.50
2019-04-28T11:10:33.962Z,157.50
2019-04-28T11:11:33.948Z,219.38
2019-04-28T11:12:33.893Z,168.75
2019-04-28T11:13:33.911Z,168.75
2019-04-28T11:14:33.893Z,174.38
2019-04-28T11:15:33.913Z,174.38
2019-04-28T11:16:33.877Z,185.62
2019-04-28T11:17:33.872Z,202.50
2019-04-28T11:18:33.853Z,196.88
2019-04-28T11:19:33.849Z,196.88
2019-04-28T11:20:33.873Z,185.62
2019-04-28T11:21:33.850Z,202.50
2019-04-28T11:22:33.785Z,343.12
2019-04-28T11:23:33.784Z,264.38
2019-04-28T11:24:33.774Z,286.88
2019-04-28T11:25:33.787Z,382.50
2019-04-28T11:26:33.753Z,416.25
2019-04-28T11:27:33.737Z,416.25
2019-04-28T11:28:33.754Z,348.75
2019-04-28T11:29:33.710Z,303.75
2019-04-28T11:30:33.713Z,298.12
2019-04-28T11:31:33.826Z,208.12
2019-04-28T11:32:33.677Z,191.25
2019-04-28T11:33:33.684Z,180.00
2019-04-28T11:34:33.654Z,270.00
2019-04-28T11:35:33.673Z,225.00
2019-04-28T11:36:33.669Z,168.75
2019-04-28T11:37:33.642Z,146.25
2019-04-28T11:38:33.627Z,140.62
2019-04-28T11:39:33.619Z,140.62
2019-04-28T11:40:33.593Z,151.88
2019-04-28T11:41:33.618Z,163.12
2019-04-28T11:42:33.584Z,168.75
2019-04-28T11:43:33.590Z,180.00
2019-04-28T11:44:34.481Z,196.88
2019-04-28T11:45:33.589Z,208.12
2019-04-28T11:46:33.616Z,225.00
2019-04-28T11:47:33.588Z,241.88
2019-04-28T11:48:33.541Z,253.12
2019-04-28T11:49:33.494Z,270.00
2019-04-28T11:50:33.509Z,275.62
2019-04-28T11:51:33.505Z,286.88
2019-04-28T11:52:33.496Z,298.12
2019-04-28T11:53:33.471Z,275.62
2019-04-28T11:54:33.465Z,258.75
2019-04-28T11:55:38.452Z,247.50
2019-04-28T11:56:41.281Z,219.38
2019-04-28T11:57:34.404Z,196.88
2019-04-28T11:58:33.424Z,191.25
2019-04-28T11:59:33.421Z,191.25
2019-04-28T12:00:33.957Z,196.88
2019-04-28T12:01:33.446Z,202.50
2019-04-28T12:02:33.395Z,196.88
2019-04-28T12:03:33.366Z,196.88
2019-04-28T12:04:33.967Z,185.62
2019-04-28T12:05:34.587Z,168.75
2019-04-28T12:06:33.347Z,163.12
2019-04-28T12:07:33.369Z,185.62
2019-04-28T12:08:33.353Z,180.00
2019-04-28T12:09:33.311Z,174.38
2019-04-28T12:10:33.309Z,168.75
2019-04-28T12:11:33.287Z,180.00
2019-04-28T12:12:33.304Z,185.62
2019-04-28T12:13:33.225Z,168.75
2019-04-28T12:14:33.217Z,191.25
2019-04-28T12:15:33.214Z,180.00
2019-04-28T12:16:33.209Z,196.88
2019-04-28T12:17:35.126Z,213.75
2019-04-28T12:18:33.185Z,213.75
2019-04-28T12:19:33.176Z,213.75
2019-04-28T12:20:33.171Z,236.25
2019-04-28T12:21:33.149Z,253.12
2019-04-28T12:22:33.172Z,236.25
2019-04-28T12:23:33.168Z,241.88
2019-04-28T12:24:33.108Z,247.50
2019-04-28T12:25:33.116Z,253.12
2019-04-28T12:26:33.109Z,258.75
2019-04-28T12:27:33.116Z,230.62
2019-04-28T12:28:33.071Z,208.12
2019-04-28T12:29:33.087Z,191.25
2019-04-28T12:30:33.044Z,185.62
2019-04-28T12:31:33.039Z,191.25
2019-04-28T12:32:33.037Z,185.62
2019-04-28T12:33:33.047Z,163.12
2019-04-28T12:34:33.015Z,157.50
2019-04-28T12:35:32.997Z,168.75
2019-04-28T12:36:32.979Z,174.38
2019-04-28T12:37:32.984Z,208.12
2019-04-28T12:38:33.000Z,213.75
2019-04-28T12:39:32.945Z,213.75
2019-04-28T12:40:32.930Z,230.62
2019-04-28T12:41:32.925Z,225.00
2019-04-28T12:42:32.908Z,174.38
2019-04-28T12:43:32.942Z,174.38
2019-04-28T12:44:32.907Z,191.25